createdAt,value
2024-02-09T00:03:58.187Z,56.53
2024-02-09T00:06:07.645Z,57.83
2024-02-09T00:08:15.264Z,58.78
2024-02-09T00:10:22.264Z,54.42
2024-02-09T00:12:26.960Z,54.38
2024-02-09T00:14:34.953Z,48.50
2024-02-09T00:16:38.112Z,52.85
2024-02-09T00:18:42.092Z,49.20
2024-02-09T00:20:47.056Z,46.10
2024-02-09T00:22:50.809Z,49.47
2024-02-09T00:24:56.605Z,49.80
2024-02-09T00:27:01.830Z,46.67
2024-02-09T00:29:06.272Z,51.25
2024-02-09T00:31:09.340Z,54.20
2024-02-09T00:33:13.631Z,51.10
2024-02-09T00:35:19.233Z,46.35
2024-02-09T00:39:26.306Z,52.10
2024-02-09T00:41:29.688Z,49.95
2024-02-09T00:43:34.324Z,49.30
2024-02-09T00:45:39.860Z,46.28
2024-02-09T00:47:44.905Z,48.78
2024-02-09T00:49:49.715Z,49.92
2024-02-09T00:51:55.205Z,52.63
2024-02-09T00:53:59.019Z,53.78
2024-02-09T00:56:02.034Z,51.47
2024-02-09T00:58:05.434Z,55.53
2024-02-09T01:00:10.650Z,48.88
2024-02-09T01:02:16.601Z,52.85
2024-02-09T01:04:20.200Z,55.20
2024-02-09T01:06:23.996Z,57.67
2024-02-09T01:08:30.354Z,61.45
2024-02-09T01:10:34.009Z,53.70
2024-02-09T01:12:55.392Z,56.38
2024-02-09T01:15:17.320Z,54.60
2024-02-09T01:17:40.538Z,55.85
2024-02-09T01:20:02.225Z,53.67
2024-02-09T01:22:24.179Z,56.08
2024-02-09T01:24:45.503Z,51.83
2024-02-09T01:27:07.189Z,53.38
2024-02-09T01:29:28.881Z,55.53
2024-02-09T01:31:50.632Z,57.28
2024-02-09T01:34:13.691Z,60.97
2024-02-09T01:36:35.316Z,53.90
2024-02-09T01:38:57.043Z,61.25
2024-02-09T01:41:18.639Z,59.03
2024-02-09T01:43:40.604Z,61.85
2024-02-09T01:46:02.783Z,54.38
2024-02-09T01:48:25.305Z,62.33
2024-02-09T01:50:48.488Z,62.65
2024-02-09T01:53:11.213Z,64.95
2024-02-09T01:55:33.446Z,66.10
2024-02-09T01:57:56.015Z,69.60
2024-02-09T02:00:17.926Z,64.00
2024-02-09T02:02:39.575Z,61.92
2024-02-09T02:05:01.348Z,63.67
2024-02-09T02:07:25.324Z,59.92
2024-02-09T02:09:47.014Z,63.78
2024-02-09T02:12:09.303Z,62.65
2024-02-09T02:14:30.725Z,66.13
2024-02-09T02:16:52.443Z,64.43
2024-02-09T02:19:14.224Z,62.35
2024-02-09T02:21:35.924Z,63.58
2024-02-09T02:24:05.756Z,63.40
2024-02-09T02:26:27.054Z,64.40
2024-02-09T02:28:48.824Z,66.53
2024-02-09T02:31:09.952Z,72.88
2024-02-09T02:33:31.888Z,61.97
2024-02-09T02:35:53.533Z,66.13
2024-02-09T02:38:15.243Z,67.25
2024-02-09T02:40:38.177Z,67.30
2024-02-09T02:42:41.012Z,69.72
2024-02-09T02:44:48.364Z,73.20
2024-02-09T02:46:53.037Z,68.10
2024-02-09T02:49:14.661Z,69.80
2024-02-09T02:51:36.385Z,75.28
2024-02-09T02:53:58.196Z,69.43
2024-02-09T02:56:28.932Z,69.50
2024-02-09T02:58:50.597Z,66.93
2024-02-09T03:01:12.273Z,73.28
2024-02-09T03:03:33.928Z,70.90
2024-02-09T03:05:37.085Z,70.32
2024-02-09T03:08:30.859Z,69.75
2024-02-09T03:10:04.496Z,72.32
2024-02-09T03:12:09.083Z,68.78
2024-02-09T03:14:12.024Z,65.95
2024-02-09T03:16:16.928Z,74.55
2024-02-09T03:18:24.680Z,69.68
2024-02-09T03:20:28.323Z,73.60
2024-02-09T03:22:32.148Z,77.20
2024-02-09T03:24:35.128Z,73.85
2024-02-09T03:26:38.129Z,73.63
2024-02-09T03:28:44.775Z,68.97
2024-02-09T03:30:47.958Z,71.47
2024-02-09T03:32:52.665Z,68.93
2024-02-09T03:34:55.884Z,70.40
2024-02-09T03:36:59.103Z,78.10
2024-02-09T03:39:07.389Z,75.80
2024-02-09T03:41:10.993Z,74.30
2024-02-09T03:43:14.988Z,77.22
2024-02-09T03:45:20.352Z,69.63
2024-02-09T03:47:27.703Z,75.25
2024-02-09T03:49:30.949Z,73.03
2024-02-09T03:51:33.824Z,73.13
2024-02-09T03:53:36.971Z,69.35
2024-02-09T03:55:41.686Z,70.05
2024-02-09T03:57:46.714Z,75.03
2024-02-09T03:59:51.473Z,74.88
2024-02-09T04:01:56.624Z,74.55
2024-02-09T04:04:01.300Z,76.13
2024-02-09T04:06:05.327Z,71.45
2024-02-09T04:08:08.321Z,64.47
2024-02-09T04:10:33.340Z,77.50
2024-02-09T04:12:34.824Z,68.00
2024-02-09T04:14:37.974Z,74.05
2024-02-09T04:16:40.951Z,66.72
2024-02-09T04:18:45.576Z,69.80
2024-02-09T04:20:48.572Z,76.43
2024-02-09T04:22:52.702Z,76.82
2024-02-09T04:24:56.273Z,70.82
2024-02-09T04:26:59.888Z,77.55
2024-02-09T04:29:02.852Z,72.82
2024-02-09T04:31:05.918Z,69.03
2024-02-09T04:33:11.458Z,71.63
2024-02-09T04:35:17.336Z,78.75
2024-02-09T04:37:23.401Z,71.60
2024-02-09T04:39:26.425Z,69.80
2024-02-09T04:41:29.414Z,62.90
2024-02-09T04:43:32.416Z,60.17
2024-02-09T04:45:35.582Z,72.57
2024-02-09T04:47:38.685Z,69.03
2024-02-09T04:49:42.006Z,67.88
2024-02-09T04:51:48.325Z,65.05
2024-02-09T04:53:52.879Z,70.10
2024-02-09T04:55:55.941Z,71.03
2024-02-09T04:57:59.014Z,73.03
2024-02-09T05:00:02.013Z,68.85
2024-02-09T05:02:05.134Z,77.10
2024-02-09T05:04:11.289Z,68.10
2024-02-09T05:06:14.284Z,70.43
2024-02-09T05:08:18.848Z,74.25
2024-02-09T05:10:22.743Z,64.65
2024-02-09T05:12:26.683Z,67.45
2024-02-09T05:14:31.116Z,68.30
2024-02-09T05:16:35.434Z,71.85
2024-02-09T05:18:38.492Z,64.07
2024-02-09T05:20:41.798Z,69.75
2024-02-09T05:22:48.326Z,81.00
2024-02-09T05:24:52.842Z,69.90
2024-02-09T05:26:55.893Z,68.97
2024-02-09T05:28:59.074Z,69.63
2024-02-09T05:31:03.121Z,64.32
2024-02-09T05:33:06.323Z,64.10
2024-02-09T05:35:09.920Z,63.35
2024-02-09T05:37:14.666Z,62.15
2024-02-09T05:39:17.617Z,59.10
2024-02-09T05:41:22.686Z,61.88
2024-02-09T05:43:25.674Z,64.45
2024-02-09T05:45:29.220Z,70.78
2024-02-09T05:47:34.465Z,67.53
2024-02-09T05:49:40.623Z,66.00
2024-02-09T05:51:43.584Z,63.92
2024-02-09T05:53:49.767Z,61.42
2024-02-09T05:55:53.109Z,66.03
2024-02-09T05:57:57.730Z,64.30
2024-02-09T06:00:00.663Z,59.58
2024-02-09T06:02:03.923Z,64.55
2024-02-09T06:04:07.224Z,53.13
2024-02-09T06:06:14.109Z,59.13
2024-02-09T06:08:17.134Z,67.00
2024-02-09T06:10:21.228Z,64.05
2024-02-09T06:12:24.406Z,58.80
2024-02-09T06:14:28.857Z,55.53
2024-02-09T06:16:33.216Z,59.25
2024-02-09T06:18:36.705Z,64.33
2024-02-09T06:20:39.683Z,59.70
2024-02-09T06:22:43.610Z,61.95
2024-02-09T06:24:46.724Z,63.20
2024-02-09T06:26:49.660Z,65.65
2024-02-09T06:28:53.579Z,59.78
2024-02-09T06:30:58.998Z,58.40
2024-02-09T06:33:03.657Z,62.00
2024-02-09T06:35:07.996Z,59.22
2024-02-09T06:37:11.085Z,51.70
2024-02-09T06:39:14.332Z,58.83
2024-02-09T06:41:17.351Z,48.30
2024-02-09T06:43:21.075Z,55.00
2024-02-09T06:45:24.459Z,58.78
2024-02-09T06:47:28.973Z,54.35
2024-02-09T06:49:32.171Z,50.08
2024-02-09T06:51:36.249Z,58.05
2024-02-09T06:53:40.645Z,54.88
2024-02-09T06:55:46.633Z,54.80
2024-02-09T06:57:51.995Z,53.00
2024-02-09T06:59:55.326Z,58.40
2024-02-09T07:02:06.266Z,53.13
2024-02-09T07:04:18.015Z,61.75
2024-02-09T07:06:24.025Z,58.22
2024-02-09T07:08:32.451Z,64.65
2024-02-09T07:10:35.726Z,55.63
2024-02-09T07:12:38.862Z,57.55
2024-02-09T07:14:43.423Z,57.35
2024-02-09T07:16:49.608Z,62.83
2024-02-09T07:18:52.689Z,56.47
2024-02-09T07:20:57.324Z,54.05
2024-02-09T07:23:00.341Z,58.00
2024-02-09T07:25:03.692Z,55.30
2024-02-09T07:27:07.799Z,55.17
2024-02-09T07:29:11.092Z,59.10
2024-02-09T07:31:16.723Z,56.50
2024-02-09T07:33:20.812Z,56.13
2024-02-09T07:35:23.987Z,55.42
2024-02-09T07:37:28.842Z,61.80
2024-02-09T07:39:36.016Z,65.40
2024-02-09T07:41:39.565Z,66.30
2024-02-09T07:43:42.712Z,61.22
2024-02-09T07:45:45.807Z,63.30
2024-02-09T07:47:50.468Z,62.65
2024-02-09T07:49:54.041Z,78.20
2024-02-09T07:51:57.113Z,71.05
2024-02-09T07:54:01.719Z,65.63
2024-02-09T07:56:05.091Z,67.03
2024-02-09T07:58:08.200Z,53.88
2024-02-09T08:00:12.362Z,49.55
2024-02-09T08:02:15.714Z,39.30
2024-02-09T08:04:18.983Z,30.77
2024-02-09T08:06:22.746Z,39.45
2024-02-09T08:08:26.446Z,33.22
2024-02-09T08:10:31.662Z,25.23
2024-02-09T08:12:34.627Z,26.98
2024-02-09T08:14:38.534Z,31.60
2024-02-09T08:16:41.711Z,24.58
2024-02-09T08:18:44.826Z,26.67
2024-02-09T08:20:47.818Z,22.85
2024-02-09T08:22:51.014Z,19.30
2024-02-09T08:24:53.899Z,22.35
2024-02-09T08:26:58.414Z,26.83
2024-02-09T08:29:01.337Z,25.10
2024-02-09T08:31:07.657Z,20.92
2024-02-09T08:33:10.954Z,26.20
2024-02-09T08:35:14.103Z,17.45
2024-02-09T08:37:17.176Z,20.92
2024-02-09T08:39:20.191Z,21.00
2024-02-09T08:41:23.354Z,24.15
2024-02-09T08:43:29.344Z,28.67
2024-02-09T08:45:32.453Z,19.17
2024-02-09T08:47:38.711Z,18.98
2024-02-09T08:49:41.693Z,23.27
2024-02-09T08:51:45.112Z,18.17
2024-02-09T08:53:49.089Z,27.70
2024-02-09T08:55:52.348Z,18.48
2024-02-09T08:57:55.295Z,17.90
2024-02-09T08:59:59.959Z,25.38
2024-02-09T09:02:03.005Z,19.57
2024-02-09T09:04:06.453Z,16.63
2024-02-09T09:06:09.977Z,17.10
2024-02-09T09:08:13.951Z,11.25
2024-02-09T09:10:17.023Z,22.42
2024-02-09T09:12:20.324Z,22.35
2024-02-09T09:14:23.435Z,18.63
2024-02-09T09:16:28.440Z,19.20
2024-02-09T09:18:31.666Z,19.30
2024-02-09T09:20:36.271Z,26.80
2024-02-09T09:22:39.656Z,24.20
2024-02-09T09:24:42.858Z,21.65
2024-02-09T09:26:45.856Z,20.90
2024-02-09T09:28:50.578Z,27.75
2024-02-09T09:30:53.442Z,20.52
2024-02-09T09:32:59.022Z,23.85
2024-02-09T09:37:10.119Z,16.83
2024-02-09T09:39:14.999Z,20.75
2024-02-09T09:43:22.990Z,22.08
2024-02-09T09:45:26.298Z,26.35
2024-02-09T09:47:30.334Z,20.17
2024-02-09T09:49:40.333Z,24.42
2024-02-09T09:51:48.678Z,27.50
2024-02-09T09:53:54.440Z,20.27
2024-02-09T09:58:05.031Z,18.60
2024-02-09T10:00:09.482Z,22.50
2024-02-09T10:02:12.712Z,28.45
2024-02-09T10:04:15.737Z,20.85
2024-02-09T10:06:20.804Z,32.35
2024-02-09T10:08:24.368Z,23.65
2024-02-09T10:10:29.590Z,23.65
2024-02-09T10:12:34.176Z,23.67
2024-02-09T10:14:40.774Z,24.10
2024-02-09T10:16:44.728Z,20.02
2024-02-09T10:18:49.094Z,17.55
2024-02-09T10:20:54.164Z,21.38
2024-02-09T10:22:59.101Z,27.52
2024-02-09T10:25:04.437Z,15.02
2024-02-09T10:27:12.185Z,22.70
2024-02-09T10:29:18.472Z,21.58
2024-02-09T10:31:24.100Z,23.73
2024-02-09T10:33:27.707Z,30.35
2024-02-09T10:35:32.159Z,23.52
2024-02-09T10:37:35.307Z,17.88
2024-02-09T10:39:39.946Z,23.30
2024-02-09T10:41:47.992Z,19.20
2024-02-09T10:43:54.964Z,23.67
2024-02-09T10:45:58.923Z,19.95
2024-02-09T10:48:03.967Z,20.60
2024-02-09T10:50:09.088Z,23.10
2024-02-09T10:52:15.385Z,22.67
2024-02-09T10:54:25.330Z,18.20
2024-02-09T10:56:35.258Z,26.30
2024-02-09T10:58:38.769Z,27.98
2024-02-09T11:00:43.349Z,18.30
2024-02-09T11:02:46.522Z,20.90
2024-02-09T11:04:50.376Z,26.60
2024-02-09T11:06:54.830Z,20.88
2024-02-09T11:08:59.513Z,20.60
2024-02-09T11:11:03.915Z,17.08
2024-02-09T11:13:08.415Z,16.42
2024-02-09T11:15:13.858Z,20.45
2024-02-09T11:19:21.208Z,23.20
2024-02-09T11:21:24.486Z,19.58
2024-02-09T11:23:29.649Z,20.85
2024-02-09T11:25:36.210Z,41.70
2024-02-09T11:27:48.057Z,27.88
2024-02-09T11:29:52.870Z,32.35
2024-02-09T11:32:04.365Z,33.23
2024-02-09T11:34:07.944Z,24.48
2024-02-09T11:36:11.045Z,27.60
2024-02-09T11:38:14.641Z,25.58
2024-02-09T11:40:18.997Z,23.65
2024-02-09T11:42:34.363Z,26.30
2024-02-09T11:44:39.467Z,22.67
2024-02-09T11:46:44.332Z,28.00
2024-02-09T11:48:47.972Z,20.63
2024-02-09T11:50:51.107Z,22.00
2024-02-09T11:53:10.973Z,27.88
2024-02-09T11:55:16.246Z,22.70
2024-02-09T11:57:20.302Z,29.00
2024-02-09T11:59:24.380Z,29.80
2024-02-09T12:01:27.673Z,25.02
2024-02-09T12:03:32.325Z,20.20
2024-02-09T12:05:36.174Z,32.95
2024-02-09T12:07:39.399Z,26.55
2024-02-09T12:09:42.915Z,23.48
2024-02-09T12:11:49.673Z,26.88
2024-02-09T12:13:52.941Z,108.80
2024-02-09T12:15:58.530Z,94.43
2024-02-09T12:18:03.485Z,45.83
2024-02-09T12:20:11.388Z,43.55
2024-02-09T12:22:14.443Z,71.82
2024-02-09T12:24:18.357Z,93.82
2024-02-09T12:26:21.886Z,63.03
2024-02-09T12:28:25.265Z,65.13
2024-02-09T12:30:29.179Z,69.70
2024-02-09T12:32:34.039Z,48.03
2024-02-09T12:34:45.215Z,43.40
2024-02-09T12:37:01.097Z,38.05
2024-02-09T12:39:09.445Z,36.15
2024-02-09T12:41:15.754Z,166.30
2024-02-09T12:43:20.278Z,51.35
2024-02-09T12:45:32.928Z,38.30
2024-02-09T12:47:36.070Z,32.22
2024-02-09T12:49:39.267Z,35.58
2024-02-09T12:51:43.797Z,29.85
2024-02-09T12:53:48.335Z,33.75
2024-02-09T12:55:51.734Z,45.45
2024-02-09T12:57:56.776Z,53.63
2024-02-09T12:59:59.914Z,36.28
2024-02-09T13:02:04.230Z,192.48
2024-02-09T13:04:07.359Z,91.60
2024-02-09T13:06:10.496Z,66.20
2024-02-09T13:08:13.417Z,86.00
2024-02-09T13:10:18.140Z,61.80
2024-02-09T13:12:23.143Z,57.30
2024-02-09T13:14:26.470Z,59.80
2024-02-09T13:16:29.530Z,61.85
2024-02-09T13:18:32.806Z,70.07
2024-02-09T13:20:37.147Z,65.80
2024-02-09T13:22:40.408Z,37.08
2024-02-09T13:24:44.402Z,44.28
2024-02-09T13:26:52.040Z,100.85
2024-02-09T13:28:59.130Z,44.10
2024-02-09T13:31:02.156Z,41.85
2024-02-09T13:33:05.997Z,48.47
2024-02-09T13:35:14.830Z,69.55
2024-02-09T13:37:18.427Z,82.88
2024-02-09T13:39:21.503Z,95.63
2024-02-09T13:41:24.535Z,56.65
2024-02-09T13:43:29.458Z,53.63
2024-02-09T13:45:32.600Z,45.10
2024-02-09T13:47:35.646Z,45.60
2024-02-09T13:49:38.695Z,39.50
2024-02-09T13:51:42.473Z,43.33
2024-02-09T13:53:46.842Z,44.80
2024-02-09T13:55:52.587Z,41.17
2024-02-09T13:57:56.161Z,42.92
2024-02-09T14:00:00.709Z,34.92
2024-02-09T14:02:04.067Z,37.10
2024-02-09T14:04:08.580Z,33.85
2024-02-09T14:06:11.729Z,35.00
2024-02-09T14:08:18.789Z,39.08
2024-02-09T14:10:22.049Z,34.25
2024-02-09T14:12:25.601Z,35.05
2024-02-09T14:14:28.740Z,33.70
2024-02-09T14:16:36.039Z,218.05
2024-02-09T14:18:39.119Z,72.72
2024-02-09T14:20:42.574Z,57.80
2024-02-09T14:22:45.765Z,38.10
2024-02-09T14:24:49.490Z,32.78
2024-02-09T14:26:52.634Z,35.50
2024-02-09T14:28:59.071Z,36.90
2024-02-09T14:31:02.472Z,31.55
2024-02-09T14:33:07.403Z,26.92
2024-02-09T14:35:10.509Z,26.95
2024-02-09T14:37:13.680Z,27.92
2024-02-09T14:39:16.624Z,32.80
2024-02-09T14:41:20.440Z,32.92
2024-02-09T14:43:23.583Z,30.67
2024-02-09T14:45:26.593Z,31.20
2024-02-09T14:47:30.901Z,37.80
2024-02-09T14:49:36.093Z,35.22
2024-02-09T14:51:40.353Z,30.70
2024-02-09T14:53:46.462Z,28.15
2024-02-09T14:55:49.737Z,32.38
2024-02-09T14:57:52.884Z,26.80
2024-02-09T14:59:55.925Z,32.13
2024-02-09T15:01:58.979Z,27.98
2024-02-09T15:04:02.375Z,39.78
2024-02-09T15:06:15.705Z,30.50
2024-02-09T15:10:24.176Z,25.52
2024-02-09T15:12:28.146Z,33.50
2024-02-09T15:14:34.499Z,23.92
2024-02-09T15:16:38.541Z,29.20
2024-02-09T15:18:41.868Z,28.70
2024-02-09T15:20:46.581Z,33.35
2024-02-09T15:22:54.925Z,27.48
2024-02-09T15:24:58.257Z,38.22
2024-02-09T15:27:01.291Z,28.65
2024-02-09T15:29:05.922Z,26.10
2024-02-09T15:31:09.785Z,26.40
2024-02-09T15:33:14.199Z,24.80
2024-02-09T15:35:19.460Z,26.13
2024-02-09T15:37:22.887Z,37.40
2024-02-09T15:39:27.767Z,26.58
2024-02-09T15:41:30.701Z,27.80
2024-02-09T15:43:33.749Z,24.73
2024-02-09T15:45:40.297Z,35.28
2024-02-09T15:47:44.747Z,43.83
2024-02-09T15:49:48.003Z,37.47
2024-02-09T15:51:51.294Z,53.65
2024-02-09T15:53:55.532Z,39.08
2024-02-09T15:56:00.165Z,54.10
2024-02-09T15:58:03.935Z,34.55
2024-02-09T16:00:08.641Z,54.40
2024-02-09T16:02:11.715Z,37.93
2024-02-09T16:04:17.875Z,35.70
2024-02-09T16:06:20.819Z,32.55
2024-02-09T16:08:23.895Z,21.88
2024-02-09T16:10:29.218Z,35.13
2024-02-09T16:14:36.363Z,31.02
2024-02-09T16:16:39.526Z,30.00
2024-02-09T16:18:42.905Z,28.67
2024-02-09T16:20:46.039Z,26.23
2024-02-09T16:22:50.286Z,27.58
2024-02-09T16:24:53.516Z,21.23
2024-02-09T16:26:56.622Z,30.50
2024-02-09T16:29:02.395Z,24.48
2024-02-09T16:31:09.834Z,28.25
2024-02-09T16:33:13.385Z,28.58
2024-02-09T16:35:16.759Z,27.80
2024-02-09T16:37:19.873Z,24.30
2024-02-09T16:39:22.946Z,31.95
2024-02-09T16:41:27.522Z,83.45
2024-02-09T16:43:30.560Z,91.90
2024-02-09T16:45:35.176Z,68.43
2024-02-09T16:47:38.174Z,51.50
2024-02-09T16:49:41.562Z,29.48
2024-02-09T16:51:44.566Z,28.98
2024-02-09T16:53:47.529Z,21.40
2024-02-09T16:55:53.544Z,26.10
2024-02-09T16:57:56.789Z,19.98
2024-02-09T16:59:59.836Z,20.38
2024-02-09T17:02:05.157Z,20.30
2024-02-09T17:04:08.627Z,33.20
2024-02-09T17:06:15.791Z,32.20
2024-02-09T17:08:19.912Z,30.95
2024-02-09T17:10:22.945Z,23.92
2024-02-09T17:12:26.083Z,23.02
2024-02-09T17:14:29.132Z,22.77
2024-02-09T17:16:32.241Z,28.85
2024-02-09T17:18:37.114Z,38.55
2024-02-09T17:20:40.232Z,33.95
2024-02-09T17:22:43.295Z,28.58
2024-02-09T17:24:46.412Z,41.90
2024-02-09T17:26:50.833Z,72.88
2024-02-09T17:28:54.491Z,44.80
2024-02-09T17:30:57.682Z,35.67
2024-02-09T17:33:01.157Z,31.80
2024-02-09T17:35:06.483Z,27.60
2024-02-09T17:37:10.613Z,32.28
2024-02-09T17:39:13.941Z,32.70
2024-02-09T17:41:19.622Z,52.95
2024-02-09T17:43:27.314Z,31.02
2024-02-09T17:45:30.525Z,51.20
2024-02-09T17:47:33.686Z,73.70
2024-02-09T17:49:36.820Z,48.95
2024-02-09T17:51:41.683Z,41.60
2024-02-09T17:53:45.626Z,28.23
2024-02-09T17:55:51.084Z,27.02
2024-02-09T17:57:54.258Z,27.90
2024-02-09T17:59:57.406Z,27.38
2024-02-09T18:02:00.681Z,34.75
2024-02-09T18:04:03.830Z,28.90
2024-02-09T18:06:07.440Z,30.05
2024-02-09T18:08:13.161Z,24.95
2024-02-09T18:10:20.011Z,22.75
2024-02-09T18:12:23.925Z,30.58
2024-02-09T18:14:26.846Z,47.70
2024-02-09T18:16:30.002Z,92.95
2024-02-09T18:18:32.968Z,227.63
2024-02-09T18:20:37.964Z,286.70
2024-02-09T18:22:40.948Z,443.08
2024-02-09T18:24:45.535Z,222.75
2024-02-09T18:26:49.197Z,79.47
2024-02-09T18:28:52.566Z,94.28
2024-02-09T18:30:57.586Z,46.90
2024-02-09T18:33:01.313Z,45.63
2024-02-09T18:35:04.806Z,88.63
2024-02-09T18:37:08.150Z,75.15
2024-02-09T18:39:11.175Z,43.97
2024-02-09T18:41:15.702Z,65.70
2024-02-09T18:43:18.638Z,43.75
2024-02-09T18:45:22.852Z,211.93
2024-02-09T18:47:26.634Z,144.13
2024-02-09T18:49:31.010Z,73.13
2024-02-09T18:51:34.248Z,36.87
2024-02-09T18:53:38.633Z,40.55
2024-02-09T18:55:42.010Z,28.35
2024-02-09T18:57:46.523Z,34.85
2024-02-09T18:59:49.413Z,171.75
2024-02-09T19:01:52.548Z,121.93
2024-02-09T19:03:55.717Z,175.10
2024-02-09T19:05:58.835Z,227.43
2024-02-09T19:08:02.910Z,467.17
2024-02-09T19:10:07.561Z,90.25
2024-02-09T19:12:10.657Z,24.20
2024-02-09T19:14:15.261Z,28.63
2024-02-09T19:16:20.072Z,21.65
2024-02-09T19:18:23.362Z,24.95
2024-02-09T19:20:26.362Z,28.85
2024-02-09T19:22:30.121Z,21.65
2024-02-09T19:24:33.293Z,21.25
2024-02-09T19:26:36.524Z,23.23
2024-02-09T19:28:39.483Z,26.48
2024-02-09T19:30:45.208Z,22.15
2024-02-09T19:32:48.510Z,24.38
2024-02-09T19:34:52.777Z,20.38
2024-02-09T19:36:55.780Z,25.83
2024-02-09T19:39:01.656Z,23.55
2024-02-09T19:41:04.907Z,22.38
2024-02-09T19:43:08.286Z,21.80
2024-02-09T19:45:13.201Z,27.35
2024-02-09T19:47:18.032Z,24.00
2024-02-09T19:49:23.025Z,17.90
2024-02-09T19:51:26.347Z,26.30
2024-02-09T19:53:29.489Z,18.60
2024-02-09T19:55:32.557Z,23.50
2024-02-09T19:57:37.184Z,26.35
2024-02-09T19:59:40.984Z,62.37
2024-02-09T20:01:46.915Z,98.30
2024-02-09T20:03:51.808Z,40.00
2024-02-09T20:05:56.737Z,25.35
2024-02-09T20:08:01.428Z,30.17
2024-02-09T20:10:08.399Z,25.33
2024-02-09T20:12:11.558Z,22.38
2024-02-09T20:14:14.553Z,27.95
2024-02-09T20:16:17.790Z,33.22
2024-02-09T20:18:25.270Z,23.73
2024-02-09T20:20:30.076Z,23.35
2024-02-09T20:22:33.811Z,22.97
2024-02-09T20:24:37.231Z,20.67
2024-02-09T20:26:40.194Z,32.97
2024-02-09T20:28:45.032Z,24.33
2024-02-09T20:30:49.640Z,25.77
2024-02-09T20:32:53.801Z,21.20
2024-02-09T20:34:59.498Z,23.38
2024-02-09T20:37:04.489Z,23.77
2024-02-09T20:39:07.570Z,24.35
2024-02-09T20:41:10.818Z,23.98
2024-02-09T20:43:13.857Z,28.40
2024-02-09T20:45:20.315Z,21.80
2024-02-09T20:47:23.816Z,23.02
2024-02-09T20:49:26.938Z,25.25
2024-02-09T20:51:30.011Z,29.60
2024-02-09T20:53:38.721Z,21.83
2024-02-09T20:55:42.179Z,25.10
2024-02-09T20:57:46.527Z,23.52
2024-02-09T20:59:51.087Z,16.52
2024-02-09T21:01:54.464Z,24.65
2024-02-09T21:04:00.516Z,20.75
2024-02-09T21:06:04.500Z,25.63
2024-02-09T21:08:08.479Z,20.52
2024-02-09T21:10:15.505Z,22.40
2024-02-09T21:12:20.775Z,25.02
2024-02-09T21:14:24.566Z,21.50
2024-02-09T21:16:29.045Z,23.80
2024-02-09T21:18:32.500Z,19.17
2024-02-09T21:20:36.524Z,27.88
2024-02-09T21:22:40.188Z,23.13
2024-02-09T21:24:43.504Z,20.38
2024-02-09T21:26:48.033Z,27.45
2024-02-09T21:28:51.196Z,19.80
2024-02-09T21:30:54.633Z,20.63
2024-02-09T21:33:01.428Z,22.73
2024-02-09T21:35:06.773Z,25.88
2024-02-09T21:37:11.330Z,24.45
2024-02-09T21:39:14.648Z,25.13
2024-02-09T21:41:17.774Z,27.65
2024-02-09T21:43:26.095Z,21.10
2024-02-09T21:45:29.224Z,28.45
2024-02-09T21:47:34.501Z,33.22
2024-02-09T21:49:39.304Z,32.80
2024-02-09T21:51:45.614Z,40.50
2024-02-09T21:53:48.556Z,26.48
2024-02-09T21:55:51.749Z,31.80
2024-02-09T21:57:55.032Z,21.50
2024-02-09T21:59:59.566Z,26.35
2024-02-09T22:02:02.557Z,31.08
2024-02-09T22:04:06.980Z,28.85
2024-02-09T22:06:10.067Z,26.13
2024-02-09T22:08:13.393Z,26.90
2024-02-09T22:10:16.613Z,30.40
2024-02-09T22:12:27.823Z,23.60
2024-02-09T22:14:34.234Z,24.92
2024-02-09T22:16:41.558Z,28.08
2024-02-09T22:18:44.566Z,26.63
2024-02-09T22:20:56.803Z,34.42
2024-02-09T22:23:03.653Z,34.35
2024-02-09T22:25:08.171Z,32.85
2024-02-09T22:27:11.120Z,31.30
2024-02-09T22:29:14.152Z,31.55
2024-02-09T22:31:18.522Z,29.17
2024-02-09T22:33:23.058Z,28.45
2024-02-09T22:35:26.258Z,37.03
2024-02-09T22:37:30.254Z,34.15
2024-02-09T22:39:41.713Z,45.90
2024-02-09T22:41:48.677Z,50.83
2024-02-09T22:43:55.577Z,59.40
2024-02-09T22:45:58.624Z,49.05
2024-02-09T22:48:02.952Z,68.38
2024-02-09T22:50:13.227Z,48.10
2024-02-09T22:52:16.940Z,39.17
2024-02-09T22:54:22.352Z,47.77
2024-02-09T22:56:26.190Z,42.30
2024-02-09T22:58:32.280Z,37.03
2024-02-09T23:00:40.073Z,40.92
2024-02-09T23:02:43.484Z,42.13
2024-02-09T23:04:55.480Z,31.52
2024-02-09T23:07:01.462Z,41.50
2024-02-09T23:09:04.653Z,42.15
2024-02-09T23:11:07.746Z,38.67
2024-02-09T23:13:10.770Z,48.97
2024-02-09T23:15:17.844Z,45.90
2024-02-09T23:17:24.740Z,52.92
2024-02-09T23:19:29.409Z,53.30
2024-02-09T23:21:32.691Z,53.33
2024-02-09T23:23:37.200Z,39.30
2024-02-09T23:25:40.226Z,49.97
2024-02-09T23:27:43.399Z,62.75
2024-02-09T23:29:46.901Z,67.30
2024-02-09T23:31:53.442Z,73.93
2024-02-09T23:33:57.642Z,65.70
2024-02-09T23:36:01.093Z,67.55
2024-02-09T23:38:04.212Z,68.53
2024-02-09T23:40:10.528Z,75.88
2024-02-09T23:42:14.623Z,64.60
2024-02-09T23:44:24.556Z,72.85
2024-02-09T23:46:27.918Z,58.88
2024-02-09T23:48:30.937Z,63.80
2024-02-09T23:50:35.267Z,60.70
2024-02-09T23:52:39.390Z,61.47
2024-02-09T23:54:42.417Z,62.72
2024-02-09T23:56:49.517Z,62.20
2024-02-09T23:58:52.847Z,69.00
